createdAt,value
2023-05-19T00:00:27.777Z,541.0000
2023-05-19T00:01:35.813Z,537.0000
2023-05-19T00:02:44.112Z,531.0000
2023-05-19T00:03:52.069Z,521.0000
2023-05-19T00:05:00.145Z,524.0000
2023-05-19T00:06:08.276Z,528.0000
2023-05-19T00:07:16.238Z,523.0000
2023-05-19T00:08:24.314Z,519.0000
2023-05-19T00:09:32.389Z,517.0000
2023-05-19T00:10:40.435Z,519.0000
2023-05-19T00:11:48.664Z,517.0000
2023-05-19T00:12:56.565Z,522.0000
2023-05-19T00:14:04.472Z,523.0000
2023-05-19T00:15:12.535Z,519.0000
2023-05-19T00:16:20.648Z,516.0000
2023-05-19T00:17:28.876Z,523.0000
2023-05-19T00:18:36.868Z,532.0000
2023-05-19T00:19:44.913Z,536.0000
2023-05-19T00:20:52.959Z,532.0000
2023-05-19T00:22:01.117Z,532.0000
2023-05-19T00:23:09.238Z,531.0000
2023-05-19T00:24:17.330Z,525.0000
2023-05-19T00:25:25.301Z,525.0000
2023-05-19T00:26:33.358Z,523.0000
2023-05-19T00:27:41.421Z,522.0000
2023-05-19T00:28:49.401Z,514.0000
2023-05-19T00:29:57.470Z,512.0000
2023-05-19T00:31:05.460Z,516.0000
2023-05-19T00:32:13.745Z,523.0000
2023-05-19T00:33:21.759Z,525.0000
2023-05-19T00:34:29.905Z,526.0000
2023-05-19T00:35:37.999Z,528.0000
2023-05-19T00:36:45.922Z,529.0000
2023-05-19T00:37:54.009Z,527.0000
2023-05-19T00:39:02.086Z,524.0000
2023-05-19T00:40:10.197Z,523.0000
2023-05-19T00:41:18.189Z,524.0000
2023-05-19T00:42:26.384Z,522.0000
2023-05-19T00:43:34.205Z,523.0000
2023-05-19T00:44:42.231Z,524.0000
2023-05-19T00:45:50.377Z,522.0000
2023-05-19T00:46:58.570Z,520.0000
2023-05-19T00:48:06.643Z,521.0000
2023-05-19T00:49:14.611Z,521.0000
2023-05-19T00:50:22.722Z,523.0000
2023-05-19T00:51:30.812Z,523.0000
2023-05-19T00:52:38.815Z,521.0000
2023-05-19T00:53:46.898Z,524.0000
2023-05-19T00:54:54.957Z,525.0000
2023-05-19T00:56:03.072Z,527.0000
2023-05-19T00:57:11.210Z,529.0000
2023-05-19T00:58:18.987Z,525.0000
2023-05-19T00:59:27.071Z,532.0000
2023-05-19T01:00:35.372Z,541.0000
2023-05-19T01:01:43.625Z,540.0000
2023-05-19T01:02:51.511Z,535.0000
2023-05-19T01:03:59.653Z,532.0000
2023-05-19T01:05:07.562Z,539.0000
2023-05-19T01:06:15.794Z,550.0000
2023-05-19T01:07:23.631Z,555.0000
2023-05-19T01:08:31.812Z,557.0000
2023-05-19T01:09:39.737Z,553.0000
2023-05-19T01:10:47.820Z,550.0000
2023-05-19T01:11:55.954Z,547.0000
2023-05-19T01:13:03.820Z,548.0000
2023-05-19T01:14:11.962Z,548.0000
2023-05-19T01:15:19.958Z,544.0000
2023-05-19T01:16:28.140Z,543.0000
2023-05-19T01:17:36.370Z,547.0000
2023-05-19T01:18:44.548Z,557.0000
2023-05-19T01:19:52.469Z,557.0000
2023-05-19T01:21:00.396Z,557.0000
2023-05-19T01:22:08.434Z,551.0000
2023-05-19T01:23:16.805Z,544.0000
2023-05-19T01:24:24.710Z,542.0000
2023-05-19T01:25:32.707Z,542.0000
2023-05-19T01:26:40.715Z,546.0000
2023-05-19T01:27:48.597Z,553.0000
2023-05-19T01:28:56.678Z,556.0000
2023-05-19T01:30:04.757Z,559.0000
2023-05-19T01:31:13.072Z,559.0000
2023-05-19T01:32:21.084Z,551.0000
2023-05-19T01:33:29.232Z,537.0000
2023-05-19T01:34:37.198Z,538.0000
2023-05-19T01:35:45.170Z,546.0000
2023-05-19T01:36:53.316Z,540.0000
2023-05-19T01:38:01.493Z,536.0000
2023-05-19T01:39:09.352Z,541.0000
2023-05-19T01:40:17.412Z,538.0000
2023-05-19T01:41:25.622Z,537.0000
2023-05-19T01:42:33.453Z,539.0000
2023-05-19T01:43:41.472Z,544.0000
2023-05-19T01:44:49.547Z,544.0000
2023-05-19T01:45:57.730Z,540.0000
2023-05-19T01:47:05.704Z,537.0000
2023-05-19T01:48:13.937Z,534.0000
2023-05-19T01:49:22.051Z,540.0000
2023-05-19T01:50:30.190Z,548.0000
2023-05-19T01:51:38.068Z,544.0000
2023-05-19T01:52:46.192Z,542.0000
2023-05-19T01:53:54.198Z,542.0000
2023-05-19T01:55:02.217Z,540.0000
2023-05-19T01:56:10.335Z,542.0000
2023-05-19T01:57:18.230Z,543.0000
2023-05-19T01:58:26.298Z,543.0000
2023-05-19T01:59:34.367Z,543.0000
2023-05-19T02:00:42.536Z,541.0000
2023-05-19T02:01:50.564Z,546.0000
2023-05-19T02:02:58.725Z,554.0000
2023-05-19T02:04:06.765Z,562.0000
2023-05-19T02:05:14.975Z,559.0000
2023-05-19T02:06:22.819Z,553.0000
2023-05-19T02:07:30.971Z,551.0000
2023-05-19T02:08:38.992Z,550.0000
2023-05-19T02:09:47.051Z,549.0000
2023-05-19T02:10:55.155Z,551.0000
2023-05-19T02:12:03.070Z,551.0000
2023-05-19T02:13:11.100Z,545.0000
2023-05-19T02:14:19.168Z,544.0000
2023-05-19T02:15:27.371Z,543.0000
2023-05-19T02:16:35.448Z,540.0000
2023-05-19T02:17:43.679Z,538.0000
2023-05-19T02:18:51.622Z,539.0000
2023-05-19T02:19:59.619Z,539.0000
2023-05-19T02:21:07.881Z,540.0000
2023-05-19T02:22:15.802Z,537.0000
2023-05-19T02:23:23.813Z,537.0000
2023-05-19T02:24:31.881Z,536.0000
2023-05-19T02:25:39.943Z,533.0000
2023-05-19T02:26:47.859Z,533.0000
2023-05-19T02:27:55.980Z,529.0000
2023-05-19T02:29:04.011Z,533.0000
2023-05-19T02:30:12.459Z,544.0000
2023-05-19T02:31:20.304Z,545.0000
2023-05-19T02:32:28.351Z,541.0000
2023-05-19T02:33:36.459Z,538.0000
2023-05-19T02:34:44.465Z,538.0000
2023-05-19T02:35:52.523Z,538.0000
2023-05-19T02:37:00.728Z,538.0000
2023-05-19T02:38:08.641Z,535.0000
2023-05-19T02:39:16.732Z,532.0000
2023-05-19T02:40:24.729Z,531.0000
2023-05-19T02:41:32.693Z,533.0000
2023-05-19T02:42:40.756Z,534.0000
2023-05-19T02:43:48.807Z,535.0000
2023-05-19T02:44:57.090Z,537.0000
2023-05-19T02:46:05.118Z,536.0000
2023-05-19T02:47:13.119Z,536.0000
2023-05-19T02:48:21.077Z,538.0000
2023-05-19T02:49:29.259Z,538.0000
2023-05-19T02:50:37.343Z,535.0000
2023-05-19T02:51:45.527Z,532.0000
2023-05-19T02:52:53.498Z,535.0000
2023-05-19T02:54:01.630Z,538.0000
2023-05-19T02:55:09.559Z,540.0000
2023-05-19T02:56:17.688Z,542.0000
2023-05-19T02:57:25.572Z,542.0000
2023-05-19T02:58:33.650Z,539.0000
2023-05-19T02:59:42.102Z,538.0000
2023-05-19T03:00:49.881Z,536.0000
2023-05-19T03:01:58.015Z,542.0000
2023-05-19T03:03:06.096Z,543.0000
2023-05-19T03:04:14.082Z,539.0000
2023-05-19T03:05:22.132Z,537.0000
2023-05-19T03:06:30.212Z,536.0000
2023-05-19T03:07:38.349Z,532.0000
2023-05-19T03:08:46.306Z,533.0000
2023-05-19T03:09:54.383Z,535.0000
2023-05-19T03:11:02.328Z,532.0000
2023-05-19T03:12:10.395Z,534.0000
2023-05-19T03:13:18.446Z,533.0000
2023-05-19T03:14:26.611Z,533.0000
2023-05-19T03:15:34.695Z,535.0000
2023-05-19T03:16:42.784Z,540.0000
2023-05-19T03:17:50.933Z,546.0000
2023-05-19T03:18:58.984Z,542.0000
2023-05-19T03:20:06.931Z,539.0000
2023-05-19T03:21:14.847Z,536.0000
2023-05-19T03:22:23.010Z,535.0000
2023-05-19T03:23:31.099Z,534.0000
2023-05-19T03:24:39.201Z,538.0000
2023-05-19T03:25:47.068Z,541.0000
2023-05-19T03:26:55.160Z,544.0000
2023-05-19T03:28:03.173Z,539.0000
2023-05-19T03:29:11.476Z,539.0000
2023-05-19T03:30:19.461Z,537.0000
2023-05-19T03:31:27.504Z,538.0000
2023-05-19T03:32:35.604Z,539.0000
2023-05-19T03:33:43.853Z,541.0000
2023-05-19T03:34:51.800Z,541.0000
2023-05-19T03:35:59.786Z,535.0000
2023-05-19T03:37:07.860Z,533.0000
2023-05-19T03:38:15.871Z,539.0000
2023-05-19T03:39:23.914Z,543.0000
2023-05-19T03:40:32.136Z,539.0000
2023-05-19T03:41:39.934Z,537.0000
2023-05-19T03:42:47.963Z,538.0000
2023-05-19T03:43:56.190Z,537.0000
2023-05-19T03:45:04.226Z,542.0000
2023-05-19T03:46:12.334Z,551.0000
2023-05-19T03:47:20.452Z,552.0000
2023-05-19T03:48:28.390Z,549.0000
2023-05-19T03:49:36.442Z,549.0000
2023-05-19T03:50:44.837Z,551.0000
2023-05-19T03:51:52.637Z,551.0000
2023-05-19T03:53:00.679Z,552.0000
2023-05-19T03:54:08.672Z,548.0000
2023-05-19T03:55:16.634Z,550.0000
2023-05-19T03:56:24.678Z,551.0000
2023-05-19T03:57:32.774Z,551.0000
2023-05-19T03:58:40.969Z,549.0000
2023-05-19T03:59:49.011Z,548.0000
2023-05-19T04:00:57.054Z,549.0000
2023-05-19T04:02:05.586Z,551.0000
2023-05-19T04:03:13.265Z,548.0000
2023-05-19T04:04:21.274Z,548.0000
2023-05-19T04:05:29.301Z,547.0000
2023-05-19T04:06:37.331Z,546.0000
2023-05-19T04:07:45.623Z,552.0000
2023-05-19T04:08:53.501Z,558.0000
2023-05-19T04:10:01.423Z,562.0000
2023-05-19T04:11:09.468Z,562.0000
2023-05-19T04:12:17.552Z,561.0000
2023-05-19T04:13:25.943Z,558.0000
2023-05-19T04:14:33.829Z,555.0000
2023-05-19T04:15:41.918Z,555.0000
2023-05-19T04:16:49.905Z,555.0000
2023-05-19T04:17:58.015Z,554.0000
2023-05-19T04:19:06.149Z,556.0000
2023-05-19T04:20:14.223Z,555.0000
2023-05-19T04:21:22.153Z,552.0000
2023-05-19T04:22:30.205Z,553.0000
2023-05-19T04:23:38.477Z,557.0000
2023-05-19T04:24:46.253Z,557.0000
2023-05-19T04:25:54.330Z,557.0000
2023-05-19T04:27:02.374Z,556.0000
2023-05-19T04:28:10.527Z,557.0000
2023-05-19T04:29:18.791Z,559.0000
2023-05-19T04:30:26.767Z,562.0000
2023-05-19T04:31:34.999Z,561.0000
2023-05-19T04:32:42.845Z,560.0000
2023-05-19T04:33:50.924Z,558.0000
2023-05-19T04:34:58.961Z,558.0000
2023-05-19T04:36:07.003Z,561.0000
2023-05-19T04:37:15.146Z,558.0000
2023-05-19T04:38:23.157Z,559.0000
2023-05-19T04:39:31.070Z,561.0000
2023-05-19T04:40:39.158Z,559.0000
2023-05-19T04:41:47.242Z,557.0000
2023-05-19T04:42:55.411Z,553.0000
2023-05-19T04:44:03.457Z,548.0000
2023-05-19T04:45:11.565Z,551.0000
2023-05-19T04:46:19.600Z,553.0000
2023-05-19T04:47:27.895Z,550.0000
2023-05-19T04:48:35.745Z,547.0000
2023-05-19T04:49:43.832Z,550.0000
2023-05-19T04:50:51.965Z,551.0000
2023-05-19T04:51:59.926Z,547.0000
2023-05-19T04:53:08.037Z,545.0000
2023-05-19T04:54:15.902Z,543.0000
2023-05-19T04:55:23.966Z,546.0000
2023-05-19T04:56:32.024Z,546.0000
2023-05-19T04:57:40.245Z,548.0000
2023-05-19T04:58:48.317Z,546.0000
2023-05-19T04:59:56.578Z,545.0000
2023-05-19T05:01:04.380Z,543.0000
2023-05-19T05:02:12.607Z,537.0000
2023-05-19T05:03:20.695Z,541.0000
2023-05-19T05:04:28.617Z,538.0000
2023-05-19T05:05:36.769Z,533.0000
2023-05-19T05:06:44.689Z,533.0000
2023-05-19T05:07:52.811Z,533.0000
2023-05-19T05:09:00.699Z,536.0000
2023-05-19T05:10:08.780Z,534.0000
2023-05-19T05:11:16.815Z,534.0000
2023-05-19T05:12:25.000Z,535.0000
2023-05-19T05:13:33.082Z,532.0000
2023-05-19T05:14:41.145Z,531.0000
2023-05-19T05:15:49.210Z,529.0000
2023-05-19T05:16:57.385Z,528.0000
2023-05-19T05:18:05.381Z,528.0000
2023-05-19T05:19:13.595Z,529.0000
2023-05-19T05:20:21.528Z,525.0000
2023-05-19T05:21:29.503Z,520.0000
2023-05-19T05:22:37.555Z,518.0000
2023-05-19T05:23:45.519Z,520.0000
2023-05-19T05:24:53.554Z,525.0000
2023-05-19T05:26:01.614Z,524.0000
2023-05-19T05:27:10.095Z,525.0000
2023-05-19T05:28:17.929Z,524.0000
2023-05-19T05:29:25.986Z,522.0000
2023-05-19T05:30:33.957Z,526.0000
2023-05-19T05:31:42.094Z,529.0000
2023-05-19T05:32:50.211Z,527.0000
2023-05-19T05:33:58.217Z,529.0000
2023-05-19T05:35:06.240Z,531.0000
2023-05-19T05:36:14.434Z,530.0000
2023-05-19T05:37:22.371Z,526.0000
2023-05-19T05:38:30.304Z,530.0000
2023-05-19T05:39:38.365Z,530.0000
2023-05-19T05:40:46.395Z,528.0000
2023-05-19T05:41:54.616Z,525.0000
2023-05-19T05:43:02.641Z,526.0000
2023-05-19T05:44:10.700Z,527.0000
2023-05-19T05:45:18.816Z,526.0000
2023-05-19T05:46:27.076Z,525.0000
2023-05-19T05:47:34.913Z,531.0000
2023-05-19T05:48:43.035Z,532.0000
2023-05-19T05:49:52.995Z,531.0000
2023-05-19T05:51:03.929Z,529.0000
2023-05-19T05:52:11.836Z,528.0000
2023-05-19T05:53:19.940Z,529.0000
2023-05-19T05:54:28.014Z,531.0000
2023-05-19T05:55:36.185Z,531.0000
2023-05-19T05:56:44.239Z,530.0000
2023-05-19T05:57:52.305Z,527.0000
2023-05-19T05:59:00.414Z,528.0000
2023-05-19T06:00:08.574Z,527.0000
2023-05-19T06:01:16.506Z,528.0000
2023-05-19T06:02:24.579Z,527.0000
2023-05-19T06:03:32.708Z,533.0000
2023-05-19T06:04:40.769Z,533.0000
2023-05-19T06:05:48.777Z,526.0000
2023-05-19T06:06:56.638Z,522.0000
2023-05-19T06:08:04.780Z,526.0000
2023-05-19T06:09:12.820Z,526.0000
2023-05-19T06:10:20.942Z,528.0000
2023-05-19T06:11:29.040Z,526.0000
2023-05-19T06:12:37.100Z,526.0000
2023-05-19T06:13:45.337Z,532.0000
2023-05-19T06:14:53.197Z,530.0000
2023-05-19T06:16:02.244Z,530.0000
2023-05-19T06:17:09.329Z,528.0000
2023-05-19T06:18:17.448Z,526.0000
2023-05-19T06:19:25.640Z,526.0000
2023-05-19T06:20:33.567Z,529.0000
2023-05-19T06:21:41.415Z,527.0000
2023-05-19T06:22:49.511Z,523.0000
2023-05-19T06:23:57.730Z,528.0000
2023-05-19T06:25:05.921Z,525.0000
2023-05-19T06:26:13.803Z,532.0000
2023-05-19T06:27:21.831Z,527.0000
2023-05-19T06:28:29.967Z,529.0000
2023-05-19T06:29:38.079Z,531.0000
2023-05-19T06:30:46.052Z,534.0000
2023-05-19T06:31:54.250Z,526.0000
2023-05-19T06:33:02.177Z,528.0000
2023-05-19T06:34:10.251Z,528.0000
2023-05-19T06:35:18.193Z,527.0000
2023-05-19T06:36:26.225Z,528.0000
2023-05-19T06:37:34.301Z,527.0000
2023-05-19T06:38:42.467Z,527.0000
2023-05-19T06:39:50.505Z,527.0000
2023-05-19T06:40:58.830Z,528.0000
2023-05-19T06:42:06.671Z,531.0000
2023-05-19T06:43:14.705Z,531.0000
2023-05-19T06:44:22.752Z,533.0000
2023-05-19T06:45:30.790Z,536.0000
2023-05-19T06:46:39.204Z,534.0000
2023-05-19T06:47:46.982Z,533.0000
2023-05-19T06:48:55.170Z,533.0000
2023-05-19T06:50:02.969Z,529.0000
2023-05-19T06:51:11.027Z,531.0000
2023-05-19T06:52:19.104Z,528.0000
2023-05-19T06:53:27.276Z,528.0000
2023-05-19T06:54:35.344Z,529.0000
2023-05-19T06:55:57.540Z,533.0000
2023-05-19T06:56:56.528Z,534.0000
2023-05-19T06:58:04.394Z,535.0000
2023-05-19T06:59:12.448Z,530.0000
2023-05-19T07:00:22.894Z,529.0000
2023-05-19T07:01:33.643Z,529.0000
2023-05-19T07:02:41.660Z,525.0000
2023-05-19T07:03:49.488Z,523.0000
2023-05-19T07:04:57.486Z,526.0000
2023-05-19T07:06:07.931Z,529.0000
2023-05-19T07:07:18.544Z,531.0000
2023-05-19T07:08:26.679Z,531.0000
2023-05-19T07:09:34.932Z,530.0000
2023-05-19T07:10:42.819Z,527.0000
2023-05-19T07:11:50.851Z,528.0000
2023-05-19T07:12:59.040Z,528.0000
2023-05-19T07:14:06.900Z,530.0000
2023-05-19T07:15:14.927Z,527.0000
2023-05-19T07:16:23.037Z,520.0000
2023-05-19T07:17:31.040Z,518.0000
2023-05-19T07:18:39.145Z,518.0000
2023-05-19T07:19:47.221Z,514.0000
2023-05-19T07:20:55.214Z,514.0000
2023-05-19T07:22:03.470Z,511.0000
2023-05-19T07:23:11.477Z,514.0000
2023-05-19T07:24:19.469Z,510.0000
2023-05-19T07:25:27.552Z,512.0000
2023-05-19T07:26:35.642Z,513.0000
2023-05-19T07:27:43.768Z,513.0000
2023-05-19T07:28:51.712Z,506.0000
2023-05-19T07:29:59.812Z,509.0000
2023-05-19T07:31:07.753Z,509.0000
2023-05-19T07:32:15.876Z,508.0000
2023-05-19T07:33:23.925Z,507.0000
2023-05-19T07:34:32.074Z,511.0000
2023-05-19T07:35:40.147Z,509.0000
2023-05-19T07:36:48.182Z,506.0000
2023-05-19T07:37:56.352Z,508.0000
2023-05-19T07:39:04.344Z,508.0000
2023-05-19T07:40:12.372Z,506.0000
2023-05-19T07:41:20.387Z,504.0000
2023-05-19T07:42:28.545Z,507.0000
2023-05-19T07:43:36.598Z,510.0000
2023-05-19T07:44:44.809Z,505.0000
2023-05-19T07:45:52.776Z,504.0000
2023-05-19T07:47:00.687Z,504.0000
2023-05-19T07:48:08.987Z,508.0000
2023-05-19T07:49:16.726Z,503.0000
2023-05-19T07:50:24.792Z,501.0000
2023-05-19T07:51:32.868Z,499.0000
2023-05-19T07:52:41.151Z,497.0000
2023-05-19T07:53:49.154Z,498.0000
2023-05-19T07:54:57.144Z,495.0000
2023-05-19T07:56:05.391Z,499.0000
2023-05-19T07:57:13.376Z,499.0000
2023-05-19T07:58:21.337Z,495.0000
2023-05-19T07:59:29.386Z,494.0000
2023-05-19T08:00:37.540Z,495.0000
2023-05-19T08:01:45.519Z,497.0000
2023-05-19T08:02:53.674Z,500.0000
2023-05-19T08:04:01.580Z,498.0000
2023-05-19T08:05:09.573Z,501.0000
2023-05-19T08:06:17.674Z,502.0000
2023-05-19T08:07:26.023Z,500.0000
2023-05-19T08:08:34.084Z,496.0000
2023-05-19T08:09:41.946Z,501.0000
2023-05-19T08:10:50.058Z,499.0000
2023-05-19T08:11:58.193Z,494.0000
2023-05-19T08:13:06.102Z,494.0000
2023-05-19T08:14:14.173Z,494.0000
2023-05-19T08:15:22.308Z,495.0000
2023-05-19T08:16:30.635Z,496.0000
2023-05-19T08:17:38.319Z,496.0000
2023-05-19T08:18:46.387Z,494.0000
2023-05-19T08:19:54.332Z,495.0000
2023-05-19T08:21:02.541Z,493.0000
2023-05-19T08:22:10.615Z,493.0000
2023-05-19T08:23:18.685Z,498.0000
2023-05-19T08:24:26.792Z,495.0000
2023-05-19T08:25:34.812Z,498.0000
2023-05-19T08:26:42.879Z,501.0000
2023-05-19T08:27:51.089Z,497.0000
2023-05-19T08:28:59.029Z,498.0000
2023-05-19T08:30:07.024Z,497.0000
2023-05-19T08:31:15.247Z,494.0000
2023-05-19T08:32:23.099Z,497.0000
2023-05-19T08:33:31.083Z,497.0000
2023-05-19T08:34:39.139Z,499.0000
2023-05-19T08:35:47.489Z,500.0000
2023-05-19T08:36:55.546Z,505.0000
2023-05-19T08:38:03.453Z,507.0000
2023-05-19T08:39:11.591Z,506.0000
2023-05-19T08:40:19.656Z,500.0000
2023-05-19T08:41:27.820Z,496.0000
2023-05-19T08:42:35.767Z,497.0000
2023-05-19T08:43:43.831Z,496.0000
2023-05-19T08:44:52.187Z,494.0000
2023-05-19T08:45:59.896Z,499.0000
2023-05-19T08:47:08.021Z,496.0000
2023-05-19T08:48:16.003Z,496.0000
2023-05-19T08:49:25.570Z,499.0000
2023-05-19T08:50:32.506Z,498.0000
2023-05-19T08:51:40.155Z,492.0000
2023-05-19T08:52:51.796Z,489.0000
2023-05-19T08:54:01.288Z,487.0000
2023-05-19T08:55:09.340Z,488.0000
2023-05-19T08:56:17.331Z,489.0000
2023-05-19T08:57:25.475Z,490.0000
2023-05-19T08:58:33.515Z,489.0000
2023-05-19T08:59:41.402Z,494.0000
2023-05-19T09:00:49.517Z,496.0000
2023-05-19T09:01:57.578Z,489.0000
2023-05-19T09:04:13.911Z,489.0000
2023-05-19T09:05:21.914Z,489.0000
2023-05-19T09:06:29.921Z,490.0000
2023-05-19T09:07:38.072Z,493.0000
2023-05-19T09:08:45.998Z,484.0000
2023-05-19T09:09:54.349Z,487.0000
2023-05-19T09:11:02.171Z,489.0000
2023-05-19T09:12:10.291Z,489.0000
2023-05-19T09:13:18.255Z,488.0000
2023-05-19T09:14:26.216Z,490.0000
2023-05-19T09:15:34.602Z,491.0000
2023-05-19T09:16:42.389Z,486.0000
2023-05-19T09:17:50.640Z,486.0000
2023-05-19T09:18:58.621Z,485.0000
2023-05-19T09:20:06.680Z,483.0000
2023-05-19T09:21:14.716Z,482.0000
2023-05-19T09:22:22.836Z,484.0000
2023-05-19T09:23:30.819Z,486.0000
2023-05-19T09:24:38.863Z,491.0000
2023-05-19T09:25:46.981Z,491.0000
2023-05-19T09:26:55.756Z,490.0000
2023-05-19T09:28:07.868Z,492.0000
2023-05-19T09:29:15.853Z,493.0000
2023-05-19T09:30:23.885Z,489.0000
2023-05-19T09:31:32.161Z,488.0000
2023-05-19T09:32:40.165Z,490.0000
2023-05-19T09:33:48.281Z,492.0000
2023-05-19T09:34:56.529Z,494.0000
2023-05-19T09:36:04.320Z,498.0000
2023-05-19T09:37:12.370Z,494.0000
2023-05-19T09:38:20.564Z,483.0000
2023-05-19T09:39:28.553Z,487.0000
2023-05-19T09:40:36.607Z,489.0000
2023-05-19T09:41:44.667Z,486.0000
2023-05-19T09:42:52.572Z,486.0000
2023-05-19T09:44:00.678Z,486.0000
2023-05-19T09:45:08.678Z,490.0000
2023-05-19T09:46:16.885Z,492.0000
2023-05-19T09:47:24.903Z,494.0000
2023-05-19T09:48:32.991Z,490.0000
2023-05-19T09:49:41.279Z,490.0000
2023-05-19T09:50:49.260Z,489.0000
2023-05-19T09:51:57.195Z,489.0000
2023-05-19T09:53:05.261Z,488.0000
2023-05-19T09:54:13.385Z,489.0000
2023-05-19T09:55:21.358Z,489.0000
2023-05-19T09:56:29.442Z,486.0000
2023-05-19T09:57:37.358Z,486.0000
2023-05-19T09:58:45.414Z,488.0000
2023-05-19T09:59:53.487Z,490.0000
2023-05-19T10:01:01.631Z,487.0000
2023-05-19T10:02:09.760Z,484.0000
2023-05-19T10:03:17.828Z,486.0000
2023-05-19T10:04:25.922Z,488.0000
2023-05-19T10:05:34.320Z,490.0000
2023-05-19T10:06:42.296Z,489.0000
2023-05-19T10:07:50.044Z,489.0000
2023-05-19T10:08:58.157Z,492.0000
2023-05-19T10:10:06.175Z,491.0000
2023-05-19T10:11:14.209Z,486.0000
2023-05-19T10:12:22.159Z,486.0000
2023-05-19T10:13:30.232Z,489.0000
2023-05-19T10:14:38.275Z,493.0000
2023-05-19T10:15:57.327Z,490.0000
2023-05-19T10:16:59.481Z,490.0000
2023-05-19T10:18:07.545Z,488.0000
2023-05-19T10:19:15.548Z,488.0000
2023-05-19T10:20:23.573Z,484.0000
2023-05-19T10:21:31.667Z,485.0000
2023-05-19T10:22:39.753Z,484.0000
2023-05-19T10:23:47.895Z,489.0000
2023-05-19T10:24:55.820Z,488.0000
2023-05-19T10:26:03.754Z,490.0000
2023-05-19T10:27:11.834Z,489.0000
2023-05-19T10:28:19.921Z,486.0000
2023-05-19T10:29:28.129Z,489.0000
2023-05-19T10:30:36.110Z,486.0000
2023-05-19T10:31:44.338Z,483.0000
2023-05-19T10:32:52.308Z,484.0000
2023-05-19T10:34:00.398Z,486.0000
2023-05-19T10:35:08.460Z,482.0000
2023-05-19T10:36:16.535Z,480.0000
2023-05-19T10:37:24.538Z,481.0000
2023-05-19T10:38:32.543Z,484.0000
2023-05-19T10:39:40.657Z,489.0000
2023-05-19T10:40:48.543Z,493.0000
2023-05-19T10:41:56.629Z,489.0000
2023-05-19T10:43:04.672Z,485.0000
2023-05-19T10:44:12.916Z,482.0000
2023-05-19T10:45:21.127Z,481.0000
2023-05-19T10:46:28.959Z,481.0000
2023-05-19T10:47:37.046Z,482.0000
2023-05-19T10:48:45.125Z,483.0000
2023-05-19T10:49:53.344Z,483.0000
2023-05-19T10:51:01.272Z,488.0000
2023-05-19T10:52:09.369Z,484.0000
2023-05-19T10:53:17.349Z,480.0000
2023-05-19T10:54:25.689Z,483.0000
2023-05-19T10:55:33.525Z,486.0000
2023-05-19T10:56:41.443Z,483.0000
2023-05-19T10:57:49.510Z,485.0000
2023-05-19T10:58:57.644Z,487.0000
2023-05-19T11:00:05.692Z,485.0000
2023-05-19T11:01:13.837Z,481.0000
2023-05-19T11:02:21.807Z,484.0000
2023-05-19T11:04:37.913Z,484.0000
2023-05-19T11:05:46.011Z,486.0000
2023-05-19T11:06:54.117Z,483.0000
2023-05-19T11:08:02.201Z,485.0000
2023-05-19T11:09:10.160Z,482.0000
2023-05-19T11:10:18.133Z,485.0000
2023-05-19T11:11:26.202Z,491.0000
2023-05-19T11:12:34.210Z,485.0000
2023-05-19T11:13:42.405Z,486.0000
2023-05-19T11:14:50.451Z,484.0000
2023-05-19T11:15:58.562Z,480.0000
2023-05-19T11:17:06.728Z,480.0000
2023-05-19T11:18:14.703Z,484.0000
2023-05-19T11:19:22.886Z,484.0000
2023-05-19T11:20:30.794Z,480.0000
2023-05-19T11:21:38.962Z,482.0000
2023-05-19T11:22:46.892Z,483.0000
2023-05-19T11:23:55.121Z,483.0000
2023-05-19T11:25:02.865Z,484.0000
2023-05-19T11:26:10.961Z,483.0000
2023-05-19T11:27:19.109Z,482.0000
2023-05-19T11:28:27.277Z,484.0000
2023-05-19T11:29:35.245Z,485.0000
2023-05-19T11:30:43.347Z,487.0000
2023-05-19T11:31:51.555Z,485.0000
2023-05-19T11:32:59.442Z,483.0000
2023-05-19T11:34:07.503Z,479.0000
2023-05-19T11:35:15.668Z,476.0000
2023-05-19T11:36:23.630Z,477.0000
2023-05-19T11:37:31.675Z,478.0000
2023-05-19T11:38:39.690Z,480.0000
2023-05-19T11:39:47.689Z,479.0000
2023-05-19T11:40:55.749Z,481.0000
2023-05-19T11:42:03.824Z,485.0000
2023-05-19T11:43:11.915Z,485.0000
2023-05-19T11:44:20.007Z,482.0000
2023-05-19T11:45:28.079Z,481.0000
2023-05-19T11:46:36.472Z,480.0000
2023-05-19T11:48:00.827Z,477.0000
2023-05-19T11:48:57.393Z,479.0000
2023-05-19T11:50:05.215Z,480.0000
2023-05-19T11:51:13.335Z,479.0000
2023-05-19T11:52:21.383Z,479.0000
2023-05-19T11:53:29.246Z,479.0000
2023-05-19T11:54:37.332Z,480.0000
2023-05-19T11:55:45.803Z,478.0000
2023-05-19T11:56:53.713Z,479.0000
2023-05-19T11:58:04.649Z,483.0000
2023-05-19T11:59:14.546Z,482.0000
2023-05-19T12:00:22.573Z,479.0000
2023-05-19T12:01:30.637Z,480.0000
2023-05-19T12:02:38.864Z,475.0000
2023-05-19T12:03:46.922Z,475.0000
2023-05-19T12:04:54.963Z,473.0000
2023-05-19T12:06:02.961Z,473.0000
2023-05-19T12:07:10.847Z,476.0000
2023-05-19T12:08:18.997Z,475.0000
2023-05-19T12:09:27.030Z,474.0000
2023-05-19T12:10:35.133Z,472.0000
2023-05-19T12:11:43.207Z,472.0000
2023-05-19T12:12:51.226Z,471.0000
2023-05-19T12:13:59.325Z,474.0000
2023-05-19T12:15:07.347Z,473.0000
2023-05-19T12:16:15.522Z,474.0000
2023-05-19T12:17:23.602Z,474.0000
2023-05-19T12:18:31.520Z,474.0000
2023-05-19T12:19:39.593Z,475.0000
2023-05-19T12:20:47.776Z,476.0000
2023-05-19T12:21:55.675Z,477.0000
2023-05-19T12:23:03.850Z,476.0000
2023-05-19T12:24:11.812Z,474.0000
2023-05-19T12:25:19.857Z,477.0000
2023-05-19T12:26:28.049Z,473.0000
2023-05-19T12:27:35.971Z,474.0000
2023-05-19T12:28:44.156Z,478.0000
2023-05-19T12:29:52.170Z,480.0000
2023-05-19T12:31:00.332Z,476.0000
2023-05-19T12:32:08.425Z,472.0000
2023-05-19T12:33:16.468Z,467.0000
2023-05-19T12:34:24.417Z,472.0000
2023-05-19T12:35:32.488Z,473.0000
2023-05-19T12:36:40.494Z,474.0000
2023-05-19T12:37:48.524Z,476.0000
2023-05-19T12:38:56.560Z,473.0000
2023-05-19T12:40:04.845Z,471.0000
2023-05-19T12:41:13.023Z,471.0000
2023-05-19T12:42:20.831Z,472.0000
2023-05-19T12:43:28.962Z,473.0000
2023-05-19T12:44:36.963Z,480.0000
2023-05-19T12:45:45.129Z,479.0000
2023-05-19T12:46:53.235Z,479.0000
2023-05-19T12:48:01.372Z,478.0000
2023-05-19T12:49:09.313Z,474.0000
2023-05-19T12:50:17.390Z,475.0000
2023-05-19T12:51:25.367Z,472.0000
2023-05-19T12:52:33.385Z,470.0000
2023-05-19T12:53:41.436Z,472.0000
2023-05-19T12:54:49.629Z,471.0000
2023-05-19T12:55:57.746Z,468.0000
2023-05-19T12:57:05.913Z,471.0000
2023-05-19T12:58:13.874Z,470.0000
2023-05-19T12:59:37.093Z,470.0000
2023-05-19T13:00:34.987Z,468.0000
2023-05-19T13:01:42.912Z,470.0000
2023-05-19T13:02:51.110Z,469.0000
2023-05-19T13:03:59.206Z,471.0000
2023-05-19T13:05:06.920Z,469.0000
2023-05-19T13:06:14.991Z,465.0000
2023-05-19T13:07:23.042Z,469.0000
2023-05-19T13:08:31.469Z,472.0000
2023-05-19T13:09:39.274Z,473.0000
2023-05-19T13:10:47.589Z,474.0000
2023-05-19T13:11:55.450Z,472.0000
2023-05-19T13:13:03.552Z,473.0000
2023-05-19T13:14:11.515Z,473.0000
2023-05-19T13:15:19.595Z,471.0000
2023-05-19T13:16:27.671Z,474.0000
2023-05-19T13:17:35.768Z,476.0000
2023-05-19T13:18:43.816Z,477.0000
2023-05-19T13:19:51.824Z,480.0000
2023-05-19T13:20:59.819Z,484.0000
2023-05-19T13:22:07.951Z,485.0000